Time;durP1;ratioP1;P1;durP2;ratioP2;P2;SDS_P1;SDS_P2;PMS_P1;PMS_P2;Temp;Humidity;BMP_temperature;BMP_pressure;BME280_temperature;BME280_humidity;BME280_pressure;Samples;Min_cycle;Max_cycle;Signal;HPM_P1;HPM_P2
2021/04/16 12:38:45;;;;;;;1.40;1.30;;;25.80;42.40;;;;;;5157460;27;20776;-85
2021/04/16 12:41:16;;;;;;;1.30;1.20;;;25.80;42.80;;;;;;5157128;27;20440;-85
2021/04/16 12:43:45;;;;;;;2.80;1.70;;;25.80;42.80;;;;;;5157159;27;20473;-85
2021/04/16 12:46:14;;;;;;;3.30;1.20;;;25.90;43.00;;;;;;5157115;27;20792;-85
2021/04/16 12:48:41;;;;;;;1.57;1.47;;;25.80;42.70;;;;;;5157054;27;20441;-84
2021/04/16 12:51:07;;;;;;;1.40;1.30;;;25.90;42.90;;;;;;5156955;27;20475;-85
2021/04/16 12:53:33;;;;;;;1.47;1.23;;;25.80;43.60;;;;;;5157214;27;20437;-85
2021/04/16 12:56:00;;;;;;;1.93;1.57;;;25.80;43.90;;;;;;5157019;27;20433;-85
2021/04/16 12:58:29;;;;;;;3.33;1.40;;;25.80;43.60;;;;;;5156908;27;20442;-85
2021/04/16 13:01:01;;;;;;;5.77;1.97;;;25.80;42.50;;;;;;5156664;27;20465;-85
2021/04/16 13:03:33;;;;;;;1.60;1.50;;;25.80;41.80;;;;;;5156872;27;20437;-84
2021/04/16 13:06:00;;;;;;;1.70;1.60;;;25.80;42.00;;;;;;5156798;27;20441;-85
2021/04/16 13:08:26;;;;;;;2.70;1.63;;;25.80;41.50;;;;;;5156771;27;20436;-85
2021/04/16 13:10:52;;;;;;;1.80;1.70;;;25.70;40.80;;;;;;5156593;27;20543;-84
2021/04/16 13:13:19;;;;;;;2.53;2.33;;;25.60;40.60;;;;;;5156617;27;20441;-85
2021/04/16 13:15:47;;;;;;;2.30;2.10;;;25.60;40.90;;;;;;5156635;27;20429;-85
2021/04/16 13:18:29;;;;;;;2.67;2.20;;;25.50;40.80;;;;;;5156440;27;20437;-85
2021/04/16 13:20:56;;;;;;;2.77;1.60;;;25.50;41.00;;;;;;5156340;27;20451;-85
2021/04/16 13:23:22;;;;;;;2.10;1.57;;;25.60;40.60;;;;;;5155319;27;20429;-84
2021/04/16 13:25:49;;;;;;;1.63;1.40;;;25.40;40.80;;;;;;5156344;27;20432;-85
2021/04/16 13:28:15;;;;;;;1.73;1.10;;;25.40;42.10;;;;;;5156292;27;20942;-85
2021/04/16 13:30:42;;;;;;;4.63;1.70;;;25.50;42.40;;;;;;5156085;27;20484;-85
2021/04/16 13:33:12;;;;;;;1.60;1.50;;;25.50;42.20;;;;;;5156358;27;20448;-84
2021/04/16 13:35:42;;;;;;;2.70;1.20;;;25.50;40.50;;;;;;5156218;27;20907;-85
2021/04/16 13:38:14;;;;;;;1.30;1.20;;;25.50;40.70;;;;;;5156307;27;20444;-84
2021/04/16 13:40:41;;;;;;;1.70;1.60;;;25.60;42.00;;;;;;5156072;27;20915;-85
2021/04/16 13:43:08;;;;;;;1.50;1.30;;;25.50;41.50;;;;;;5156209;27;20800;-84
2021/04/16 13:45:34;;;;;;;1.83;1.73;;;25.50;41.70;;;;;;5155873;27;20457;-84
2021/04/16 13:48:02;;;;;;;1.73;1.63;;;25.50;40.90;;;;;;5155907;27;20448;-84
2021/04/16 13:50:29;;;;;;;3.20;1.70;;;25.50;41.20;;;;;;5155778;27;20984;-84
2021/04/16 13:52:56;;;;;;;2.17;2.07;;;25.40;40.90;;;;;;5155718;27;20485;-84
2021/04/16 13:55:24;;;;;;;2.33;2.13;;;25.40;40.90;;;;;;5155819;27;20440;-86
2021/04/16 13:57:50;;;;;;;2.00;1.80;;;25.40;40.70;;;;;;5155698;27;20455;-85
2021/04/16 14:00:20;;;;;;;3.00;1.87;;;25.40;40.60;;;;;;5155278;27;20457;-84
2021/04/16 14:02:49;;;;;;;2.80;2.07;;;25.30;39.50;;;;;;5155647;27;20435;-85
2021/04/16 14:05:19;;;;;;;1.70;1.60;;;25.30;39.70;;;;;;5155628;27;20435;-84
2021/04/16 14:07:46;;;;;;;1.70;1.60;;;25.30;39.90;;;;;;5155620;27;20487;-85
2021/04/16 14:10:14;;;;;;;3.87;2.13;;;25.20;40.00;;;;;;5155654;27;20486;-89
2021/04/16 14:12:41;;;;;;;1.60;1.10;;;25.20;40.30;;;;;;5153663;27;20444;-88
2021/04/16 14:15:08;;;;;;;1.73;1.10;;;25.20;43.70;;;;;;5135291;27;20525;-90
2021/04/16 14:17:38;;;;;;;1.70;1.33;;;25.20;44.50;;;;;;5134810;27;20446;-86
2021/04/16 14:20:12;;;;;;;2.13;2.03;;;25.40;44.40;;;;;;5134918;27;20439;-86
2021/04/16 14:22:41;;;;;;;4.40;1.70;;;25.20;42.00;;;;;;5135109;27;20433;-85
2021/04/16 14:25:12;;;;;;;2.27;1.70;;;25.40;41.50;;;;;;5135058;27;20494;-85
2021/04/16 14:27:39;;;;;;;2.37;1.73;;;25.20;41.60;;;;;;5134899;27;20448;-85
2021/04/16 14:30:10;;;;;;;1.70;1.60;;;25.20;40.70;;;;;;5134804;27;20478;-85
2021/04/16 14:32:36;;;;;;;2.27;1.40;;;25.20;40.30;;;;;;5134832;27;20438;-85
2021/04/16 14:35:03;;;;;;;2.80;1.50;;;25.40;40.50;;;;;;5134379;27;20434;-86
2021/04/16 14:37:29;;;;;;;1.63;1.50;;;25.20;40.90;;;;;;5134909;27;20489;-84
2021/04/16 14:39:55;;;;;;;1.77;1.30;;;25.20;41.50;;;;;;5134359;27;20438;-84
2021/04/16 14:42:24;;;;;;;1.30;1.20;;;25.20;40.40;;;;;;5137073;27;20430;-83
2021/04/16 14:44:51;;;;;;;2.17;1.30;;;25.10;40.60;;;;;;5134417;27;20458;-83
2021/04/16 14:47:17;;;;;;;1.37;1.10;;;25.10;39.90;;;;;;5134655;27;20445;-83
2021/04/16 14:49:43;;;;;;;3.00;1.07;;;25.20;41.20;;;;;;5134512;27;20477;-84
2021/04/16 14:52:13;;;;;;;1.30;1.07;;;25.30;43.00;;;;;;5134464;27;20442;-84
2021/04/16 14:54:44;;;;;;;2.73;1.03;;;25.30;43.50;;;;;;5134909;27;20441;-83
2021/04/16 14:57:22;;;;;;;1.20;1.00;;;25.40;43.40;;;;;;5134757;27;20482;-84
2021/04/16 14:59:49;;;;;;;2.90;1.30;;;25.40;43.50;;;;;;5134156;28;20488;-84
2021/04/16 15:02:16;;;;;;;1.60;1.10;;;25.40;43.60;;;;;;5134360;28;20430;-83
2021/04/16 15:04:42;;;;;;;2.90;1.20;;;25.50;43.80;;;;;;5134436;28;20429;-83
2021/04/16 15:07:11;;;;;;;1.57;1.17;;;25.50;44.50;;;;;;5134457;28;20437;-83
2021/04/16 15:09:45;;;;;;;1.50;0.90;;;25.60;44.20;;;;;;5134614;28;20534;-89
2021/04/16 15:12:14;;;;;;;1.10;0.90;;;25.80;44.50;;;;;;5134657;28;20864;-88
2021/04/16 15:14:41;;;;;;;1.40;1.20;;;25.90;45.20;;;;;;5134067;28;20527;-87
2021/04/16 15:17:07;;;;;;;1.83;0.90;;;25.70;44.80;;;;;;5134048;28;20490;-87
2021/04/16 15:19:37;;;;;;;1.07;0.80;;;25.70;44.80;;;;;;5134195;28;20438;-86
2021/04/16 15:22:09;;;;;;;5.60;0.90;;;25.80;45.00;;;;;;5133906;28;20434;-87
2021/04/16 15:24:36;;;;;;;1.80;1.00;;;25.80;45.20;;;;;;5134151;28;20467;-87
2021/04/16 15:27:04;;;;;;;1.33;1.23;;;25.70;45.30;;;;;;5134093;28;20444;-87
2021/04/16 15:29:34;;;;;;;1.83;1.10;;;25.80;45.40;;;;;;5134432;28;20481;-87
2021/04/16 15:32:00;;;;;;;1.73;1.10;;;25.80;45.40;;;;;;5134164;28;20434;-87
2021/04/16 15:48:00;;;;;;;3.80;1.23;;;25.90;46.10;;;;;;5138218;27;20459;-87
2021/04/16 15:50:30;;;;;;;1.50;1.10;;;25.90;46.20;;;;;;5137633;27;21006;-86
2021/04/16 15:52:58;;;;;;;1.30;1.00;;;25.90;46.20;;;;;;5138109;27;20783;-87
2021/04/16 15:55:24;;;;;;;1.40;1.00;;;25.90;47.00;;;;;;5137663;27;20438;-88
2021/04/16 15:57:51;;;;;;;2.73;1.40;;;26.00;46.40;;;;;;5137818;27;20502;-88
2021/04/16 16:00:23;;;;;;;1.50;1.40;;;25.90;46.50;;;;;;5137445;27;20469;-87
2021/04/16 16:02:53;;;;;;;1.90;1.10;;;25.90;46.60;;;;;;5137891;27;20430;-88
2021/04/16 16:05:21;;;;;;;3.07;1.37;;;25.90;46.60;;;;;;5137811;27;20430;-87
2021/04/16 16:07:48;;;;;;;1.90;1.30;;;25.90;46.80;;;;;;5137517;27;20830;-87
2021/04/16 16:10:15;;;;;;;1.57;1.13;;;25.90;46.80;;;;;;5137526;27;20481;-86
2021/04/16 16:12:46;;;;;;;2.07;1.37;;;25.90;46.80;;;;;;5137767;27;20462;-86
2021/04/16 16:15:20;;;;;;;1.97;1.50;;;26.00;46.90;;;;;;5137301;27;20481;-86
2021/04/16 16:17:47;;;;;;;3.40;1.90;;;25.90;47.00;;;;;;5137397;27;20433;-88
2021/04/16 16:20:16;;;;;;;1.60;1.27;;;25.80;46.90;;;;;;5137263;27;20441;-86
2021/04/16 16:22:42;;;;;;;2.50;1.17;;;25.90;47.00;;;;;;5137446;27;20440;-86
2021/04/16 16:25:10;;;;;;;2.10;1.20;;;25.90;47.00;;;;;;5137494;27;20434;-87
2021/04/16 16:27:40;;;;;;;2.53;1.23;;;25.90;47.10;;;;;;5137399;27;20445;-87
2021/04/16 16:30:08;;;;;;;1.73;1.40;;;25.90;47.10;;;;;;5139706;27;20485;-90
2021/04/16 16:32:38;;;;;;;3.83;1.60;;;25.90;47.00;;;;;;5137318;27;20467;-90
2021/04/16 16:35:06;;;;;;;1.73;1.53;;;25.90;43.20;;;;;;5137019;27;20421;-83
2021/04/16 16:37:33;;;;;;;2.90;2.27;;;25.90;44.40;;;;;;5136863;27;20519;-83
2021/04/16 16:39:59;;;;;;;4.00;1.90;;;26.00;46.40;;;;;;5136762;27;20847;-84
2021/04/16 16:42:28;;;;;;;2.70;1.87;;;25.80;47.20;;;;;;5136849;27;20435;-85
2021/04/16 16:44:55;;;;;;;2.70;1.87;;;25.90;47.50;;;;;;5136781;27;20479;-85
2021/04/16 16:47:23;;;;;;;3.57;1.90;;;26.00;47.60;;;;;;5136865;27;20433;-88
2021/04/16 16:49:49;;;;;;;2.90;1.60;;;25.90;47.50;;;;;;5139160;27;20480;-84
2021/04/16 16:52:15;;;;;;;1.73;1.53;;;25.90;47.60;;;;;;5141673;27;20437;-85
2021/04/16 16:54:42;;;;;;;5.23;1.43;;;25.80;47.70;;;;;;5136957;27;20450;-85
2021/04/16 16:57:09;;;;;;;2.33;1.40;;;25.80;47.80;;;;;;5137018;27;20454;-84
2021/04/16 16:59:38;;;;;;;3.30;1.70;;;25.80;47.90;;;;;;5146070;27;20474;-85
2021/04/16 17:02:09;;;;;;;3.33;1.33;;;25.90;47.90;;;;;;5149008;27;20932;-85
2021/04/16 17:04:35;;;;;;;1.70;1.43;;;25.90;47.90;;;;;;5145698;27;20449;-86
2021/04/16 17:07:02;;;;;;;1.93;1.50;;;25.90;48.00;;;;;;5142787;27;20434;-87
2021/04/16 17:09:28;;;;;;;1.60;1.17;;;25.90;48.10;;;;;;5149150;27;20430;-86
2021/04/16 17:11:56;;;;;;;2.00;1.30;;;25.90;48.20;;;;;;5145965;27;20433;-86
2021/04/16 17:14:27;;;;;;;1.70;1.40;;;26.00;48.20;;;;;;5148034;27;20822;-86
2021/04/16 17:16:53;;;;;;;1.77;1.47;;;26.00;48.20;;;;;;5148313;27;20441;-85
2021/04/16 17:19:20;;;;;;;1.50;1.20;;;26.00;48.20;;;;;;5152274;27;20435;-86
2021/04/16 17:21:48;;;;;;;2.10;1.40;;;26.00;48.20;;;;;;5156335;27;20497;-90
2021/04/16 17:24:14;;;;;;;3.50;1.40;;;26.00;48.10;;;;;;5157012;27;20440;-86
2021/04/16 17:26:42;;;;;;;2.20;1.50;;;26.00;47.70;;;;;;5156200;27;20456;-85
2021/04/16 17:29:12;;;;;;;1.60;1.40;;;26.10;47.90;;;;;;5143850;27;20445;-87
2021/04/16 17:31:39;;;;;;;2.33;1.00;;;26.00;47.80;;;;;;5148106;27;20444;-87
2021/04/16 17:34:05;;;;;;;2.30;1.70;;;26.00;48.10;;;;;;5148262;27;20442;-87
2021/04/16 17:36:33;;;;;;;1.70;1.30;;;26.00;48.10;;;;;;5145243;27;20431;-86
2021/04/16 17:38:59;;;;;;;2.07;1.20;;;26.00;48.20;;;;;;5145109;27;20461;-85
2021/04/16 17:41:31;;;;;;;3.53;1.53;;;26.00;48.20;;;;;;5145027;27;20444;-86
2021/04/16 17:43:58;;;;;;;1.50;1.30;;;26.00;48.20;;;;;;5142296;27;20472;-88
2021/04/16 17:46:26;;;;;;;1.53;1.43;;;26.00;48.30;;;;;;5147476;27;20429;-88
2021/04/16 17:48:52;;;;;;;1.80;1.20;;;26.00;48.30;;;;;;5144004;27;20799;-88
2021/04/16 17:51:21;;;;;;;1.67;1.10;;;26.00;48.30;;;;;;5145660;27;20549;-87
2021/04/16 17:53:50;;;;;;;1.33;1.20;;;26.00;48.30;;;;;;5144991;27;20441;-85
2021/04/16 17:56:17;;;;;;;2.33;1.43;;;26.00;48.20;;;;;;5147739;27;20440;-86
2021/04/16 17:58:43;;;;;;;1.80;1.10;;;25.90;47.90;;;;;;5145552;27;20461;-86
2021/04/16 18:01:12;;;;;;;4.80;1.70;;;26.00;48.20;;;;;;5137045;27;20442;-87
2021/04/16 18:03:40;;;;;;;1.67;1.00;;;26.00;48.40;;;;;;5135275;27;20440;-83
2021/04/16 18:06:10;;;;;;;1.63;1.10;;;26.00;48.40;;;;;;5135227;27;20434;-83
2021/04/16 18:08:39;;;;;;;3.00;1.30;;;26.00;48.30;;;;;;5134944;27;20441;-84
2021/04/16 18:11:07;;;;;;;1.73;1.40;;;25.90;48.50;;;;;;5134946;27;20477;-87
2021/04/16 18:13:35;;;;;;;2.80;1.37;;;25.90;48.50;;;;;;5135249;27;20460;-88
2021/04/16 18:16:01;;;;;;;2.00;1.33;;;26.00;48.50;;;;;;5135168;27;20442;-88
2021/04/16 18:18:27;;;;;;;3.00;1.30;;;26.00;48.50;;;;;;5135787;27;20963;-91
2021/04/16 18:20:56;;;;;;;1.40;1.27;;;26.00;48.60;;;;;;5135366;27;20449;-89
2021/04/16 18:23:27;;;;;;;2.80;1.50;;;26.00;48.50;;;;;;5135117;27;20559;-91
2021/04/16 18:25:53;;;;;;;6.20;1.43;;;26.00;48.40;;;;;;5134881;27;20438;-88
2021/04/16 18:28:23;;;;;;;2.70;1.20;;;26.00;48.40;;;;;;5134831;27;20921;-91
2021/04/16 18:30:51;;;;;;;3.10;0.97;;;26.10;49.00;;;;;;5135161;27;20485;-89
2021/04/16 18:33:18;;;;;;;1.80;1.20;;;26.00;48.40;;;;;;5135306;27;20530;-90
2021/04/16 18:35:48;;;;;;;2.43;1.30;;;26.00;48.40;;;;;;5135105;27;20499;-91
2021/04/16 18:38:23;;;;;;;1.40;1.20;;;26.00;48.40;;;;;;5134999;27;20438;-90
2021/04/16 18:40:53;;;;;;;1.80;1.50;;;26.10;48.50;;;;;;5135191;27;20989;-91
2021/04/16 18:43:21;;;;;;;1.50;1.10;;;26.00;48.40;;;;;;5135390;27;20461;-93
2021/04/16 18:45:47;;;;;;;2.13;1.93;;;26.00;48.40;;;;;;5135504;27;20835;-91
2021/04/16 18:48:14;;;;;;;2.17;1.50;;;26.10;48.50;;;;;;5134874;27;20437;-86
2021/04/16 18:50:40;;;;;;;1.40;1.30;;;26.00;48.40;;;;;;5134548;27;20489;-88
2021/04/16 18:53:18;;;;;;;2.60;1.57;;;26.10;48.50;;;;;;5135682;27;20434;-92
2021/04/16 18:55:45;;;;;;;2.07;1.30;;;25.90;48.60;;;;;;5136049;27;20446;-93
2021/04/16 18:58:11;;;;;;;2.07;1.23;;;26.20;48.90;;;;;;5136180;27;20545;-92
2021/04/16 19:00:41;;;;;;;1.50;1.30;;;26.10;48.70;;;;;;5134477;28;20472;-89
2021/04/16 19:03:08;;;;;;;2.17;1.30;;;26.20;48.60;;;;;;5134982;28;20506;-92
2021/04/16 19:05:35;;;;;;;1.47;1.37;;;26.10;48.50;;;;;;5134781;28;20797;-89
2021/04/16 19:08:04;;;;;;;1.73;1.30;;;26.10;48.60;;;;;;5135080;28;21033;-91
2021/04/16 19:10:30;;;;;;;1.50;1.40;;;26.10;48.50;;;;;;5135195;28;20509;-92
2021/04/16 19:13:00;;;;;;;1.73;1.30;;;26.10;48.60;;;;;;5134951;28;20450;-92
2021/04/16 19:15:30;;;;;;;1.50;1.20;;;26.10;48.60;;;;;;5134849;28;20449;-90
2021/04/16 19:17:58;;;;;;;1.67;1.57;;;26.10;48.60;;;;;;5134344;28;20561;-88
2021/04/16 19:20:27;;;;;;;1.67;1.20;;;26.10;48.60;;;;;;5134333;27;20919;-88
2021/04/16 19:22:54;;;;;;;1.87;1.50;;;26.10;48.70;;;;;;5139399;27;20506;-89
2021/04/16 19:25:27;;;;;;;3.97;1.83;;;26.10;48.70;;;;;;5138481;27;20440;-90
2021/04/16 19:27:54;;;;;;;2.20;1.77;;;26.10;48.70;;;;;;5138702;27;20468;-91
2021/04/16 19:30:25;;;;;;;1.63;1.40;;;26.10;49.00;;;;;;5138508;27;20565;-91
2021/04/16 19:32:51;;;;;;;1.37;1.20;;;26.10;49.30;;;;;;5138832;27;20963;-88
2021/04/16 19:35:19;;;;;;;2.47;1.50;;;26.00;48.70;;;;;;5139033;27;20437;-89
2021/04/16 19:37:48;;;;;;;1.30;1.20;;;26.00;48.80;;;;;;5138181;27;20441;-90
2021/04/16 19:40:22;;;;;;;1.50;1.20;;;26.00;48.70;;;;;;5138565;27;20533;-93
2021/04/16 19:42:48;;;;;;;2.70;1.43;;;26.00;48.80;;;;;;5138403;27;20416;-86
2021/04/16 19:45:15;;;;;;;1.60;1.50;;;26.00;48.90;;;;;;5138162;27;20554;-88
2021/04/16 19:59:51;;;;;;;2.03;1.40;;;26.00;49.00;;;;;;5138102;27;20410;-91
2021/04/16 20:18:27;;;;;;;1.80;1.70;;;26.00;49.10;;;;;;5138307;27;20885;-90
2021/04/16 20:20:58;;;;;;;1.90;1.70;;;26.00;49.10;;;;;;5148973;27;20474;-94
2021/04/16 20:23:28;;;;;;;1.87;1.77;;;26.00;48.70;;;;;;5139335;27;20430;-89
2021/04/16 20:25:58;;;;;;;1.70;1.30;;;26.00;48.30;;;;;;5137723;27;20475;-90
2021/04/16 20:28:25;;;;;;;1.50;1.40;;;26.00;48.80;;;;;;5137607;27;20513;-91
2021/04/16 20:30:54;;;;;;;2.10;1.80;;;26.00;49.00;;;;;;5138179;27;21006;-93
2021/04/16 20:33:23;;;;;;;3.93;1.57;;;26.00;49.00;;;;;;5137170;27;20934;-92
2021/04/16 20:35:51;;;;;;;1.50;1.40;;;26.00;49.10;;;;;;5137222;27;20860;-90
2021/04/16 20:38:18;;;;;;;2.70;1.37;;;26.00;49.10;;;;;;5137345;27;20529;-91
2021/04/16 20:40:48;;;;;;;1.93;1.83;;;26.00;49.10;;;;;;5136989;27;20520;-90
2021/04/16 20:43:18;;;;;;;2.20;1.77;;;26.00;49.10;;;;;;5137128;27;20572;-90
2021/04/16 20:45:45;;;;;;;2.00;1.80;;;26.00;49.10;;;;;;5137189;27;20434;-89
2021/04/16 20:48:15;;;;;;;1.90;1.80;;;26.00;49.10;;;;;;5136902;27;20524;-89
2021/04/16 20:50:42;;;;;;;2.80;1.63;;;26.00;49.10;;;;;;5137077;27;20465;-92
2021/04/16 20:53:09;;;;;;;2.30;1.73;;;26.00;49.10;;;;;;5137942;27;20444;-90
2021/04/16 20:55:41;;;;;;;1.93;1.80;;;26.00;49.10;;;;;;5136606;27;20434;-90
2021/04/16 20:58:09;;;;;;;2.10;2.00;;;26.00;49.10;;;;;;5136907;27;20426;-89
2021/04/16 21:00:38;;;;;;;1.80;1.70;;;26.00;49.20;;;;;;5136456;27;20571;-92
2021/04/16 21:03:28;;;;;;;1.90;1.80;;;26.00;49.20;;;;;;5136650;27;20520;-90
2021/04/16 21:06:00;;;;;;;2.13;1.93;;;26.00;49.20;;;;;;5137360;27;20427;-92
2021/04/16 21:08:31;;;;;;;1.43;1.33;;;26.00;49.20;;;;;;5136594;27;20475;-91
2021/04/16 21:11:00;;;;;;;2.40;2.30;;;26.00;49.30;;;;;;5137313;27;20478;-91
2021/04/16 21:13:29;;;;;;;6.93;1.93;;;26.00;49.10;;;;;;5137499;27;20464;-93
2021/04/16 21:15:58;;;;;;;2.73;2.53;;;26.00;48.50;;;;;;5137580;27;20456;-91
2021/04/16 21:18:30;;;;;;;2.97;2.13;;;26.00;48.40;;;;;;5137899;27;20465;-93
2021/04/16 21:21:02;;;;;;;1.83;1.73;;;25.90;49.10;;;;;;5139118;27;20445;-86
2021/04/16 21:23:38;;;;;;;2.00;1.90;;;25.90;48.50;;;;;;5137700;27;20851;-92
2021/04/16 21:26:08;;;;;;;2.00;1.83;;;25.90;48.50;;;;;;5137337;27;20532;-92
2021/04/16 21:28:35;;;;;;;1.90;1.80;;;25.80;48.40;;;;;;5137700;27;20935;-92
2021/04/16 21:31:03;;;;;;;1.90;1.80;;;25.80;48.90;;;;;;5137121;27;20485;-91
2021/04/16 21:33:40;;;;;;;1.80;1.70;;;25.80;48.30;;;;;;5137598;27;20437;-92
2021/04/16 21:36:08;;;;;;;1.70;1.60;;;25.80;48.20;;;;;;5136896;27;20470;-91
2021/04/16 21:38:35;;;;;;;1.63;1.30;;;25.80;48.20;;;;;;5136799;27;20586;-92
2021/04/16 21:41:06;;;;;;;2.30;2.10;;;25.80;48.20;;;;;;5136846;27;20456;-91
2021/04/16 21:43:35;;;;;;;1.67;1.57;;;25.70;48.10;;;;;;5136300;27;20476;-92
2021/04/16 21:46:05;;;;;;;1.63;1.53;;;25.70;48.10;;;;;;5137077;27;20528;-91
2021/04/16 21:48:42;;;;;;;1.70;1.50;;;25.70;48.10;;;;;;5136423;27;20442;-91
2021/04/16 21:51:27;;;;;;;1.40;1.30;;;25.70;48.10;;;;;;5136534;27;20469;-91
2021/04/16 21:53:58;;;;;;;1.27;1.17;;;25.70;48.00;;;;;;5136169;27;20456;-92
2021/04/16 21:56:25;;;;;;;1.70;1.60;;;25.70;48.10;;;;;;5136911;27;20449;-92
2021/04/16 21:58:52;;;;;;;1.90;1.80;;;25.60;48.10;;;;;;5136071;27;20461;-91
2021/04/16 22:01:22;;;;;;;2.17;1.97;;;25.60;48.00;;;;;;5136379;27;20462;-90
2021/04/16 22:03:52;;;;;;;1.50;1.40;;;25.60;48.10;;;;;;5135650;27;20980;-91
2021/04/16 22:06:30;;;;;;;1.77;1.33;;;25.60;48.10;;;;;;5135437;27;20468;-91
2021/04/16 22:09:05;;;;;;;1.40;1.30;;;25.60;48.10;;;;;;5135649;27;20414;-91
2021/04/16 22:11:37;;;;;;;1.50;1.40;;;25.60;48.10;;;;;;5135523;27;20572;-91
2021/04/16 22:14:10;;;;;;;1.53;1.43;;;25.60;48.10;;;;;;5135168;27;20823;-90
2021/04/16 22:16:41;;;;;;;1.77;1.67;;;25.60;48.00;;;;;;5135370;27;20446;-90
2021/04/16 22:19:10;;;;;;;1.60;1.50;;;25.60;48.00;;;;;;5135669;27;20460;-91
2021/04/16 22:21:49;;;;;;;1.53;1.40;;;25.50;48.00;;;;;;5135949;27;20452;-90
2021/04/16 22:24:29;;;;;;;1.70;1.60;;;25.60;48.00;;;;;;5135267;27;20437;-91
2021/04/16 22:26:57;;;;;;;1.47;1.37;;;25.50;47.90;;;;;;5135134;27;20446;-92
2021/04/16 22:29:29;;;;;;;1.57;1.47;;;25.50;48.00;;;;;;5134951;27;20429;-90
2021/04/16 22:31:57;;;;;;;1.33;1.23;;;25.50;47.90;;;;;;5135205;27;20482;-91
2021/04/16 22:34:28;;;;;;;1.50;1.40;;;25.50;47.90;;;;;;5134803;27;20962;-90
2021/04/16 22:36:55;;;;;;;1.80;1.70;;;25.50;47.90;;;;;;5134987;27;20438;-87
2021/04/16 22:39:27;;;;;;;2.27;1.20;;;25.50;48.30;;;;;;5135222;27;20449;-88
2021/04/16 22:42:01;;;;;;;1.63;1.53;;;25.50;48.10;;;;;;5134700;27;20525;-88
2021/04/16 22:44:31;;;;;;;1.57;1.47;;;25.50;48.10;;;;;;5134830;27;20486;-87
2021/04/16 22:47:23;;;;;;;1.83;1.27;;;25.50;48.10;;;;;;5134867;27;20481;-87
2021/04/16 22:49:52;;;;;;;1.33;1.23;;;25.50;48.10;;;;;;5134723;27;20524;-88
2021/04/16 22:52:22;;;;;;;1.30;1.20;;;25.50;48.10;;;;;;5134828;27;20442;-88
2021/04/16 22:54:49;;;;;;;1.40;1.30;;;25.50;48.70;;;;;;5134675;27;20429;-88
2021/04/16 22:57:19;;;;;;;2.40;1.30;;;25.50;48.20;;;;;;5134620;27;20446;-89
2021/04/16 22:59:46;;;;;;;1.40;1.30;;;25.50;48.70;;;;;;5134472;27;20477;-89
2021/04/16 23:02:23;;;;;;;1.37;1.27;;;25.50;48.10;;;;;;5134420;28;20438;-89
2021/04/16 23:04:50;;;;;;;1.27;1.17;;;25.50;48.10;;;;;;5134518;28;20993;-88
2021/04/16 23:07:23;;;;;;;1.40;1.30;;;25.50;48.20;;;;;;5134579;28;20447;-89
2021/04/16 23:09:50;;;;;;;1.60;1.50;;;25.50;48.20;;;;;;5134616;28;20445;-89
2021/04/16 23:12:20;;;;;;;1.53;1.43;;;25.40;48.10;;;;;;5134620;28;20951;-89
2021/04/16 23:14:46;;;;;;;1.30;1.20;;;25.40;48.10;;;;;;5134269;28;20815;-89
2021/04/16 23:17:13;;;;;;;1.40;1.30;;;25.40;48.10;;;;;;5133980;28;20441;-87
2021/04/16 23:19:40;;;;;;;1.30;1.20;;;25.40;48.20;;;;;;5134415;28;20826;-88
2021/04/16 23:22:18;;;;;;;1.30;1.20;;;25.40;48.20;;;;;;5134253;28;20441;-86
2021/04/16 23:24:47;;;;;;;1.20;1.10;;;25.40;48.20;;;;;;5134593;28;20509;-88
2021/04/16 23:27:21;;;;;;;1.30;1.20;;;25.40;48.30;;;;;;5134446;28;20444;-87
2021/04/16 23:29:48;;;;;;;1.40;1.30;;;25.50;48.30;;;;;;5134238;28;20437;-88
2021/04/16 23:32:35;;;;;;;1.63;1.40;;;25.40;48.30;;;;;;5134293;28;20446;-87
2021/04/16 23:35:02;;;;;;;1.60;1.50;;;25.40;48.20;;;;;;5134320;28;20440;-89
2021/04/16 23:37:35;;;;;;;1.30;1.20;;;25.30;48.30;;;;;;5134089;28;20444;-88
2021/04/16 23:40:01;;;;;;;1.30;1.20;;;25.30;48.30;;;;;;5133986;28;20437;-88
2021/04/16 23:42:28;;;;;;;1.37;1.27;;;25.30;48.30;;;;;;5134239;28;20480;-88
2021/04/16 23:44:57;;;;;;;1.63;1.53;;;25.30;48.30;;;;;;5134256;28;20510;-89
2021/04/16 23:47:24;;;;;;;1.87;1.30;;;25.30;48.30;;;;;;5134034;28;20437;-89
2021/04/16 23:49:54;;;;;;;1.50;1.40;;;25.30;48.30;;;;;;5134227;28;20436;-88
2021/04/16 23:52:24;;;;;;;1.50;1.40;;;25.30;48.40;;;;;;5133980;28;20486;-88
2021/04/16 23:54:52;;;;;;;1.20;1.10;;;25.30;48.40;;;;;;5134244;28;20908;-87
2021/04/16 23:57:18;;;;;;;1.40;1.30;;;25.30;48.40;;;;;;5133833;28;20444;-87
2021/04/16 23:59:46;;;;;;;1.37;1.27;;;25.30;48.40;;;;;;5133672;28;20556;-87
